Saffell, AR (72572)

7:01 AM CDT on August 27, 2016 (GMT -0500)
Indian Springs Road | | Change Station
Active Advisory: Flood Warning

Elev 450 ft 35.79 °N, 91.56 °W | Updated 6 minutes ago

Scattered Clouds
Scattered Clouds
70.3 °F
Feels Like 70.3 °F
N
0.0
Wind Variable Wind from SE

Today
High -- | Low -- °F
--% Chance of Precip.
Yesterday
High -- | Low -- °F
Precip. -- in
Pressure 30.08 in
Visibility 1.5 miles
Clouds Scattered Clouds 200 ft
Dew Point 70 °F
Humidity 99%
Rainfall 0.00 in
Snow Depth Not available.
6:33 AM 7:38 PM
Waning Crescent, 25% visible
SPECI KM19 271200Z AUTO 00000KT 1 1/2SM BR SCT002 22/22 A3008 RMK AO2 TSNO
Pressure 30.08 in
Visibility 1.5 miles
Clouds Scattered Clouds 200 ft
Dew Point 70 °F
Humidity 99%
Rainfall 0.00 in
Snow Depth Not available.
6:33 AM 7:38 PM
Waning Crescent, 25% visible
SPECI KM19 271200Z AUTO 00000KT 1 1/2SM BR SCT002 22/22 A3008 RMK AO2 TSNO

10-Day Weather Forecast

Almanac

Astronomy

Aug. 27, 2016 Rise Set
Actual Time
Civil Twilight
Nautical Twilight
Astronomical Twilight
Moon
Length of Visible Light
Length of Day
Tomorrow will be .
, % of the Moon is Illuminated

Today's Extremes

State Highs State Lows

Community

WunderPhotos

Upload Photos

1,935,325 photos uploaded!

WunderBlog® & News

Nearby

Air Quality

  Air Quality AQ Index Pollutant
Not available.

Snow Depth

Station Depth Elevation

Earthquake Activity

City Distance Mag. Time & Date
Minimum magnitude displayed is 2.5.

Coastal Water Temperatures

Place Temperature

Stations

Nearby Weather Stations

Station Location Temp. Windchill Dew Point Humidity Wind Precip. Elev Updated Type
                   

Watches & Warnings

Flood Warning
Issued: 8:37 PM CDT Aug. 26, 2016 – National Weather Service

The Flood Warning continues for
the Black River at Black Rock.
* Until further notice... or until the warning is cancelled.
* At 8:00 PM Friday the stage was 21.4 feet.
* Minor flooding is occurring and minor flooding is forecast.
* Flood stage is 14.0 feet.
* Forecast... the river will continue to fall to a stage of 20.1 feet
by Sunday morning.
* Impacts at 20.0 feet... agricultural land is flooding along both
banks of the river in Lawrence, Independence, and Jackson counties.
Minor flooding in Powhatan community and courthouse State Park.


             Fld observed forecast 6 am
location stg stg day time Sat sun Mon Tue Wed

Black River
Black Rock 14 21.4 Fri 08 PM 20.9 20.1 19.4 18.7 17.9




Lat... Lon 3570 9140 3591 9125 3612 9115 3610 9101
3588 9110 3564 9128